EZY82GV GCTS-EGGP
Flight info
| Callsign | EZY82GV |
|---|---|
| Flight time | N/A |
| Altitude | 34000 |
| Route | KONBA UN866 BEXAL DCT DEMOS/N0442F360 DCT SOSOV DCT TURDO/N0444F370 DCT AMPOP DCT SIDDI DCT EPACE DCT ACCOP P16 PEPZE |
| Aircraft | A320/M-SDE2E3FGHIJ1RWXYZ/LB1 |
Departure
| Time | N/A |
|---|---|
| Airport | Tenerife Sur Airport (GCTS) |
Arrival
| Time | 2026-05-03 23:02 |
|---|---|
| Airport | Liverpool John Lennon Airport (EGGP) |
| Time | Latitude | Longitude | Altitude | Speed | Heading |
|---|---|---|---|---|---|
| 2026-05-03 20:15 | 34.54994 | -12.66923 | 34125 ft | 497 kts | 28° |
| 2026-05-03 20:15 | 34.60668 | -12.62130 | 34157 ft | 497 kts | 28° |
| 2026-05-03 20:16 | 34.66332 | -12.57347 | 34151 ft | 497 kts | 28° |
| 2026-05-03 20:16 | 34.72005 | -12.52554 | 34144 ft | 497 kts | 28° |
| 2026-05-03 20:17 | 34.77672 | -12.47747 | 34139 ft | 497 kts | 28° |
| 2026-05-03 20:17 | 34.83332 | -12.42926 | 34133 ft | 497 kts | 28° |
| 2026-05-03 20:18 | 34.88997 | -12.38109 | 34166 ft | 496 kts | 29° |
| 2026-05-03 20:18 | 34.94649 | -12.33289 | 34156 ft | 496 kts | 29° |
| 2026-05-03 20:19 | 35.00294 | -12.28474 | 34155 ft | 495 kts | 29° |
| 2026-05-03 20:19 | 35.05922 | -12.23655 | 34143 ft | 494 kts | 29° |
| 2026-05-03 20:20 | 35.11548 | -12.18833 | 34137 ft | 494 kts | 29° |
| 2026-05-03 20:20 | 35.17166 | -12.14012 | 34166 ft | 493 kts | 29° |
| 2026-05-03 20:21 | 35.22761 | -12.09201 | 34161 ft | 491 kts | 29° |
| 2026-05-03 20:21 | 35.28331 | -12.04388 | 34152 ft | 490 kts | 29° |
| 2026-05-03 20:22 | 35.33899 | -11.99593 | 34138 ft | 489 kts | 29° |
| 2026-05-03 20:22 | 35.39462 | -11.94795 | 34129 ft | 489 kts | 30° |
| 2026-05-03 20:23 | 35.45026 | -11.89974 | 34124 ft | 489 kts | 30° |
| 2026-05-03 20:23 | 35.50587 | -11.85147 | 34124 ft | 490 kts | 30° |
| 2026-05-03 20:24 | 35.56147 | -11.80310 | 34131 ft | 490 kts | 30° |
| 2026-05-03 20:24 | 35.61713 | -11.75477 | 34124 ft | 490 kts | 30° |
| 2026-05-03 20:25 | 35.67272 | -11.70617 | 34129 ft | 490 kts | 30° |
| 2026-05-03 20:25 | 35.72829 | -11.65752 | 34133 ft | 490 kts | 29° |
| 2026-05-03 20:26 | 35.78394 | -11.60890 | 34120 ft | 491 kts | 29° |
| 2026-05-03 20:26 | 35.83963 | -11.56024 | 34120 ft | 491 kts | 29° |
| 2026-05-03 20:27 | 35.89523 | -11.51142 | 34123 ft | 491 kts | 30° |
| 2026-05-03 20:27 | 35.95132 | -11.46377 | 34154 ft | 485 kts | 22° |
| 2026-05-03 20:28 | 36.01259 | -11.43335 | 34128 ft | 468 kts | 6° |
| 2026-05-03 20:28 | 36.07566 | -11.41331 | 34113 ft | 468 kts | 6° |
| 2026-05-03 20:29 | 36.13879 | -11.39305 | 34110 ft | 469 kts | 6° |
| 2026-05-03 20:29 | 36.20194 | -11.37257 | 34110 ft | 469 kts | 6° |
| 2026-05-03 20:30 | 36.26511 | -11.35198 | 34135 ft | 470 kts | 6° |
| 2026-05-03 20:30 | 36.32837 | -11.33144 | 34125 ft | 470 kts | 6° |
| 2026-05-03 20:31 | 36.39165 | -11.31098 | 34121 ft | 470 kts | 6° |
| 2026-05-03 20:31 | 36.45494 | -11.29033 | 34110 ft | 471 kts | 6° |
| 2026-05-03 20:32 | 36.51829 | -11.26962 | 34123 ft | 471 kts | 6° |
| 2026-05-03 20:32 | 36.58171 | -11.24900 | 34114 ft | 471 kts | 6° |
| 2026-05-03 20:33 | 36.64509 | -11.22832 | 34110 ft | 471 kts | 6° |
| 2026-05-03 20:33 | 36.70849 | -11.20746 | 34162 ft | 471 kts | 6° |
| 2026-05-03 20:34 | 36.77181 | -11.18664 | 34148 ft | 471 kts | 6° |
| 2026-05-03 20:34 | 36.83514 | -11.16583 | 34126 ft | 470 kts | 6° |
| 2026-05-03 20:35 | 36.89840 | -11.14499 | 34126 ft | 470 kts | 6° |
| 2026-05-03 20:35 | 36.96162 | -11.12419 | 34151 ft | 470 kts | 6° |
| 2026-05-03 20:36 | 37.02486 | -11.10336 | 34126 ft | 470 kts | 6° |
| 2026-05-03 20:36 | 37.08811 | -11.08244 | 34118 ft | 470 kts | 6° |
| 2026-05-03 20:37 | 37.15134 | -11.06143 | 34115 ft | 470 kts | 6° |
| 2026-05-03 20:37 | 37.21458 | -11.04041 | 34160 ft | 470 kts | 6° |
| 2026-05-03 20:38 | 37.27782 | -11.01931 | 34145 ft | 470 kts | 6° |
| 2026-05-03 20:38 | 37.34104 | -10.99827 | 34129 ft | 470 kts | 6° |
| 2026-05-03 20:39 | 37.40428 | -10.97724 | 34121 ft | 470 kts | 6° |
| 2026-05-03 20:39 | 37.46748 | -10.95612 | 34138 ft | 470 kts | 6° |
| 2026-05-03 20:40 | 37.53072 | -10.93491 | 34125 ft | 470 kts | 6° |
| 2026-05-03 20:40 | 37.59403 | -10.91374 | 34111 ft | 471 kts | 6° |
| 2026-05-03 20:41 | 37.65740 | -10.89251 | 34105 ft | 472 kts | 6° |
| 2026-05-03 20:41 | 37.72084 | -10.87106 | 34135 ft | 472 kts | 7° |
| 2026-05-03 20:42 | 37.78433 | -10.84955 | 34121 ft | 472 kts | 7° |
| 2026-05-03 20:42 | 37.84784 | -10.82813 | 34116 ft | 472 kts | 7° |
| 2026-05-03 20:43 | 37.91137 | -10.80670 | 34113 ft | 473 kts | 7° |
| 2026-05-03 20:43 | 37.97490 | -10.78518 | 34113 ft | 473 kts | 7° |
| 2026-05-03 20:44 | 38.03841 | -10.76364 | 34109 ft | 472 kts | 7° |
| 2026-05-03 20:44 | 38.10194 | -10.74211 | 34108 ft | 472 kts | 7° |
| 2026-05-03 20:45 | 38.16544 | -10.72046 | 34137 ft | 473 kts | 7° |
| 2026-05-03 20:45 | 38.22900 | -10.69873 | 34140 ft | 473 kts | 7° |
| 2026-05-03 20:46 | 38.29253 | -10.67692 | 34135 ft | 473 kts | 7° |
| 2026-05-03 20:46 | 38.35608 | -10.65516 | 34126 ft | 473 kts | 7° |
| 2026-05-03 20:47 | 38.41960 | -10.63339 | 34146 ft | 473 kts | 7° |
| 2026-05-03 20:47 | 38.48304 | -10.61150 | 34134 ft | 472 kts | 7° |
| 2026-05-03 20:48 | 38.54649 | -10.58956 | 34132 ft | 472 kts | 7° |
| 2026-05-03 20:48 | 38.60991 | -10.56766 | 34113 ft | 472 kts | 7° |
| 2026-05-03 20:49 | 38.67336 | -10.54573 | 34139 ft | 473 kts | 7° |
| 2026-05-03 20:49 | 38.73687 | -10.52377 | 34122 ft | 472 kts | 7° |
| 2026-05-03 20:50 | 38.80031 | -10.50180 | 34113 ft | 472 kts | 7° |
| 2026-05-03 20:50 | 38.86375 | -10.47969 | 34109 ft | 473 kts | 7° |
| 2026-05-03 20:51 | 38.92723 | -10.45758 | 34143 ft | 473 kts | 8° |
| 2026-05-03 20:51 | 38.99064 | -10.43533 | 34130 ft | 472 kts | 8° |
| 2026-05-03 20:52 | 39.05406 | -10.41312 | 34118 ft | 472 kts | 8° |
| 2026-05-03 20:52 | 39.10671 | -10.39472 | 34116 ft | 472 kts | 8° |
| 2026-05-03 20:53 | 39.16988 | -10.37251 | 34115 ft | 468 kts | 9° |
| 2026-05-03 20:53 | 39.23269 | -10.35037 | 34109 ft | 468 kts | 9° |
| 2026-05-03 20:54 | 39.29546 | -10.32834 | 34097 ft | 467 kts | 8° |
| 2026-05-03 20:54 | 39.38956 | -10.29509 | 34119 ft | 467 kts | 9° |
| 2026-05-03 20:55 | 39.45215 | -10.27290 | 34113 ft | 466 kts | 9° |
| 2026-05-03 20:55 | 39.51465 | -10.25070 | 34113 ft | 465 kts | 9° |
| 2026-05-03 20:56 | 39.57708 | -10.22862 | 34114 ft | 465 kts | 9° |
| 2026-05-03 20:56 | 39.63945 | -10.20655 | 34124 ft | 464 kts | 9° |
| 2026-05-03 20:57 | 39.70178 | -10.18427 | 34103 ft | 465 kts | 9° |
| 2026-05-03 20:57 | 39.76415 | -10.16187 | 34087 ft | 465 kts | 9° |
| 2026-05-03 20:58 | 39.82657 | -10.13946 | 34119 ft | 465 kts | 10° |
| 2026-05-03 20:58 | 39.88899 | -10.11717 | 34108 ft | 465 kts | 10° |
| 2026-05-03 20:59 | 39.95137 | -10.09478 | 34100 ft | 465 kts | 10° |
| 2026-05-03 20:59 | 40.01365 | -10.07234 | 34093 ft | 464 kts | 10° |
| 2026-05-03 21:00 | 40.06543 | -10.05356 | 34109 ft | 464 kts | 10° |
| 2026-05-03 21:00 | 40.13822 | -10.02726 | 34099 ft | 464 kts | 10° |
| 2026-05-03 21:01 | 40.20048 | -10.00486 | 34091 ft | 464 kts | 10° |
| 2026-05-03 21:01 | 40.26272 | -9.98231 | 34086 ft | 464 kts | 10° |
| 2026-05-03 21:02 | 40.32495 | -9.95958 | 34079 ft | 464 kts | 10° |
| 2026-05-03 21:02 | 40.38719 | -9.93679 | 34079 ft | 464 kts | 10° |
| 2026-05-03 21:03 | 40.44943 | -9.91408 | 34080 ft | 464 kts | 10° |
| 2026-05-03 21:03 | 40.51172 | -9.89143 | 34108 ft | 464 kts | 11° |
| 2026-05-03 21:04 | 40.57390 | -9.86872 | 34101 ft | 464 kts | 11° |
| 2026-05-03 21:04 | 40.63606 | -9.84585 | 34096 ft | 464 kts | 11° |
| 2026-05-03 21:05 | 40.69817 | -9.82293 | 34080 ft | 464 kts | 11° |
| 2026-05-03 21:05 | 40.76040 | -9.80002 | 34082 ft | 464 kts | 11° |
| 2026-05-03 21:06 | 40.82263 | -9.77709 | 34080 ft | 465 kts | 11° |
| 2026-05-03 21:06 | 40.88496 | -9.75410 | 34079 ft | 465 kts | 11° |
| 2026-05-03 21:07 | 40.94727 | -9.73090 | 34115 ft | 465 kts | 11° |
| 2026-05-03 21:07 | 41.00956 | -9.70773 | 34098 ft | 465 kts | 11° |
| 2026-05-03 21:08 | 41.07178 | -9.68464 | 34091 ft | 464 kts | 11° |
| 2026-05-03 21:08 | 41.13397 | -9.66147 | 34087 ft | 464 kts | 11° |
| 2026-05-03 21:09 | 41.19610 | -9.63819 | 34097 ft | 464 kts | 12° |
| 2026-05-03 21:09 | 41.25820 | -9.61492 | 34090 ft | 463 kts | 12° |
| 2026-05-03 21:10 | 41.32028 | -9.59170 | 34087 ft | 463 kts | 12° |
| 2026-05-03 21:10 | 41.38234 | -9.56840 | 34114 ft | 463 kts | 12° |
| 2026-05-03 21:11 | 41.44432 | -9.54504 | 34105 ft | 462 kts | 12° |
| 2026-05-03 21:11 | 41.50619 | -9.52180 | 34094 ft | 461 kts | 12° |
| 2026-05-03 21:12 | 41.56795 | -9.49851 | 34084 ft | 461 kts | 12° |
| 2026-05-03 21:12 | 41.62962 | -9.47518 | 34094 ft | 461 kts | 12° |
| 2026-05-03 21:13 | 41.69128 | -9.45165 | 34075 ft | 461 kts | 12° |
| 2026-05-03 21:13 | 41.72216 | -9.43984 | 34216 ft | 462 kts | 12° |
| 2026-05-03 21:13 | 41.75307 | -9.42805 | 34444 ft | 462 kts | 12° |
| 2026-05-03 21:14 | 41.78396 | -9.41628 | 34680 ft | 461 kts | 12° |
| 2026-05-03 21:14 | 41.81480 | -9.40454 | 34926 ft | 460 kts | 12° |
| 2026-05-03 21:14 | 41.84555 | -9.39282 | 35163 ft | 459 kts | 12° |
| 2026-05-03 21:14 | 41.87624 | -9.38112 | 35401 ft | 458 kts | 12° |
| 2026-05-03 21:15 | 41.90684 | -9.36947 | 35635 ft | 456 kts | 12° |
| 2026-05-03 21:15 | 41.93730 | -9.35765 | 35875 ft | 455 kts | 13° |
| 2026-05-03 21:15 | 41.96752 | -9.34478 | 36034 ft | 457 kts | 15° |
| 2026-05-03 21:15 | 41.99773 | -9.33093 | 36064 ft | 461 kts | 16° |
| 2026-05-03 21:16 | 42.05854 | -9.30175 | 36062 ft | 465 kts | 17° |
| 2026-05-03 21:16 | 42.11959 | -9.27283 | 36072 ft | 465 kts | 16° |
| 2026-05-03 21:17 | 42.17044 | -9.24938 | 36058 ft | 465 kts | 15° |
| 2026-05-03 21:17 | 42.24200 | -9.21653 | 36066 ft | 465 kts | 15° |
| 2026-05-03 21:18 | 42.30316 | -9.18823 | 36071 ft | 464 kts | 16° |
| 2026-05-03 21:18 | 42.36422 | -9.15989 | 36063 ft | 464 kts | 16° |
| 2026-05-03 21:19 | 42.42526 | -9.13150 | 36069 ft | 464 kts | 16° |
| 2026-05-03 21:19 | 42.48626 | -9.10292 | 36058 ft | 464 kts | 16° |
| 2026-05-03 21:20 | 42.54726 | -9.07442 | 36051 ft | 464 kts | 16° |
| 2026-05-03 21:20 | 42.60836 | -9.04590 | 36054 ft | 465 kts | 16° |
| 2026-05-03 21:21 | 42.66953 | -9.01719 | 36073 ft | 465 kts | 16° |
| 2026-05-03 21:21 | 42.73032 | -8.98858 | 36058 ft | 465 kts | 16° |
| 2026-05-03 21:22 | 42.79150 | -8.95979 | 36072 ft | 465 kts | 16° |
| 2026-05-03 21:22 | 42.85262 | -8.93093 | 36064 ft | 465 kts | 16° |
| 2026-05-03 21:23 | 42.91370 | -8.90206 | 36077 ft | 464 kts | 17° |
| 2026-05-03 21:23 | 42.97471 | -8.87315 | 36074 ft | 463 kts | 17° |
| 2026-05-03 21:24 | 43.03557 | -8.84425 | 36072 ft | 463 kts | 17° |
| 2026-05-03 21:24 | 43.09672 | -8.81509 | 36074 ft | 462 kts | 17° |
| 2026-05-03 21:25 | 43.15693 | -8.78630 | 36070 ft | 461 kts | 17° |
| 2026-05-03 21:25 | 43.21756 | -8.75730 | 36071 ft | 461 kts | 17° |
| 2026-05-03 21:26 | 43.27810 | -8.72835 | 36067 ft | 461 kts | 17° |
| 2026-05-03 21:26 | 43.33863 | -8.69940 | 36067 ft | 460 kts | 17° |
| 2026-05-03 21:27 | 43.39906 | -8.67030 | 36054 ft | 460 kts | 17° |
| 2026-05-03 21:27 | 43.45953 | -8.64103 | 36045 ft | 461 kts | 17° |
| 2026-05-03 21:28 | 43.52000 | -8.61182 | 36055 ft | 461 kts | 17° |
| 2026-05-03 21:28 | 43.58056 | -8.58257 | 36054 ft | 461 kts | 17° |
| 2026-05-03 21:29 | 43.64113 | -8.55314 | 36053 ft | 461 kts | 17° |
| 2026-05-03 21:29 | 43.70169 | -8.52362 | 36055 ft | 462 kts | 17° |
| 2026-05-03 21:30 | 43.76225 | -8.49410 | 36067 ft | 461 kts | 17° |
| 2026-05-03 21:30 | 43.82275 | -8.46461 | 36065 ft | 461 kts | 17° |
| 2026-05-03 21:31 | 43.88320 | -8.43507 | 36063 ft | 460 kts | 17° |
| 2026-05-03 21:31 | 43.94359 | -8.40547 | 36069 ft | 460 kts | 17° |
| 2026-05-03 21:32 | 44.00386 | -8.37586 | 36064 ft | 460 kts | 17° |
| 2026-05-03 21:32 | 44.06413 | -8.34617 | 36060 ft | 459 kts | 17° |
| 2026-05-03 21:33 | 44.12441 | -8.31643 | 36051 ft | 460 kts | 17° |
| 2026-05-03 21:33 | 44.18477 | -8.28647 | 36041 ft | 460 kts | 17° |
| 2026-05-03 21:34 | 44.24513 | -8.25651 | 36037 ft | 461 kts | 17° |
| 2026-05-03 21:34 | 44.30552 | -8.22659 | 36035 ft | 461 kts | 17° |
| 2026-05-03 21:35 | 44.36589 | -8.19658 | 36037 ft | 460 kts | 18° |
| 2026-05-03 21:35 | 44.42621 | -8.16640 | 36035 ft | 460 kts | 18° |
| 2026-05-03 21:36 | 44.48649 | -8.13623 | 36034 ft | 460 kts | 18° |
| 2026-05-03 21:36 | 44.53663 | -8.11104 | 36034 ft | 460 kts | 18° |
| 2026-05-03 21:37 | 44.59691 | -8.08071 | 36032 ft | 460 kts | 18° |
| 2026-05-03 21:37 | 44.65725 | -8.05039 | 36034 ft | 461 kts | 18° |
| 2026-05-03 21:38 | 44.71755 | -8.02003 | 36046 ft | 460 kts | 18° |
| 2026-05-03 21:38 | 44.77775 | -7.98950 | 36045 ft | 460 kts | 18° |
| 2026-05-03 21:39 | 44.83796 | -7.95881 | 36042 ft | 460 kts | 18° |
| 2026-05-03 21:39 | 44.89817 | -7.92824 | 36037 ft | 460 kts | 18° |
| 2026-05-03 21:40 | 44.95838 | -7.89761 | 36050 ft | 460 kts | 18° |
| 2026-05-03 21:40 | 45.01954 | -7.87202 | 36047 ft | 458 kts | 12° |
| 2026-05-03 21:41 | 45.08128 | -7.85005 | 36043 ft | 458 kts | 12° |
| 2026-05-03 21:41 | 45.14300 | -7.82805 | 36040 ft | 457 kts | 12° |
| 2026-05-03 21:42 | 45.20462 | -7.80602 | 36039 ft | 456 kts | 12° |
| 2026-05-03 21:42 | 45.26621 | -7.78390 | 36036 ft | 456 kts | 12° |
| 2026-05-03 21:43 | 45.32773 | -7.76175 | 36046 ft | 456 kts | 12° |
| 2026-05-03 21:43 | 45.38924 | -7.73951 | 36026 ft | 456 kts | 12° |
| 2026-05-03 21:44 | 45.45083 | -7.71733 | 36019 ft | 457 kts | 12° |
| 2026-05-03 21:44 | 45.51244 | -7.69511 | 36017 ft | 457 kts | 12° |
| 2026-05-03 21:45 | 45.57407 | -7.67284 | 36025 ft | 457 kts | 12° |
| 2026-05-03 21:45 | 45.63570 | -7.65041 | 36023 ft | 457 kts | 12° |
| 2026-05-03 21:46 | 45.69692 | -7.62814 | 36024 ft | 457 kts | 12° |
| 2026-05-03 21:46 | 45.75853 | -7.60561 | 36029 ft | 457 kts | 13° |
| 2026-05-03 21:47 | 45.82012 | -7.58293 | 36029 ft | 457 kts | 13° |
| 2026-05-03 21:47 | 45.88168 | -7.56031 | 36025 ft | 457 kts | 13° |
| 2026-05-03 21:48 | 45.94324 | -7.53779 | 36034 ft | 456 kts | 13° |
| 2026-05-03 21:48 | 46.00476 | -7.51518 | 36013 ft | 456 kts | 13° |
| 2026-05-03 21:49 | 46.06628 | -7.49244 | 36010 ft | 457 kts | 13° |
| 2026-05-03 21:49 | 46.12783 | -7.46966 | 36015 ft | 457 kts | 13° |
| 2026-05-03 21:50 | 46.18929 | -7.44685 | 36010 ft | 456 kts | 13° |
| 2026-05-03 21:50 | 46.25079 | -7.42409 | 35998 ft | 456 kts | 13° |
| 2026-05-03 21:51 | 46.31268 | -7.40108 | 36002 ft | 456 kts | 13° |
| 2026-05-03 21:51 | 46.37414 | -7.37804 | 36013 ft | 456 kts | 13° |
| 2026-05-03 21:52 | 46.43556 | -7.35505 | 36011 ft | 456 kts | 13° |
| 2026-05-03 21:52 | 46.49692 | -7.33195 | 36000 ft | 455 kts | 13° |
| 2026-05-03 21:53 | 46.55823 | -7.30883 | 36002 ft | 455 kts | 13° |
| 2026-05-03 21:53 | 46.61958 | -7.28565 | 35990 ft | 456 kts | 13° |
| 2026-05-03 21:54 | 46.68104 | -7.26251 | 35989 ft | 456 kts | 13° |
| 2026-05-03 21:54 | 46.74250 | -7.23928 | 35992 ft | 457 kts | 13° |
| 2026-05-03 21:55 | 46.80398 | -7.21592 | 35990 ft | 457 kts | 13° |
| 2026-05-03 21:55 | 46.86198 | -7.19376 | 35990 ft | 457 kts | 13° |
| 2026-05-03 21:56 | 46.92358 | -7.17029 | 35988 ft | 457 kts | 13° |
| 2026-05-03 21:56 | 46.98514 | -7.14675 | 35997 ft | 457 kts | 14° |
| 2026-05-03 21:57 | 47.04665 | -7.12314 | 36006 ft | 457 kts | 13° |
| 2026-05-03 21:57 | 47.10812 | -7.09956 | 35998 ft | 456 kts | 13° |
| 2026-05-03 21:58 | 47.16915 | -7.07611 | 36005 ft | 456 kts | 13° |
| 2026-05-03 21:58 | 47.23094 | -7.05239 | 36002 ft | 456 kts | 13° |
| 2026-05-03 21:59 | 47.29226 | -7.02859 | 35983 ft | 456 kts | 14° |
| 2026-05-03 21:59 | 47.35362 | -7.00468 | 35973 ft | 456 kts | 14° |
| 2026-05-03 22:00 | 47.41499 | -6.98073 | 35985 ft | 456 kts | 14° |
| 2026-05-03 22:00 | 47.47637 | -6.95693 | 36088 ft | 456 kts | 13° |
| 2026-05-03 22:01 | 47.50704 | -6.94533 | 36335 ft | 454 kts | 13° |
| 2026-05-03 22:01 | 47.53758 | -6.93390 | 36580 ft | 452 kts | 13° |
| 2026-05-03 22:01 | 47.56801 | -6.92256 | 36829 ft | 450 kts | 13° |
| 2026-05-03 22:01 | 47.59837 | -6.91121 | 36953 ft | 451 kts | 13° |
| 2026-05-03 22:02 | 47.65970 | -6.88807 | 36977 ft | 457 kts | 13° |
| 2026-05-03 22:02 | 47.72140 | -6.86466 | 36978 ft | 458 kts | 14° |
| 2026-05-03 22:03 | 47.78313 | -6.84112 | 36975 ft | 458 kts | 14° |
| 2026-05-03 22:03 | 47.84483 | -6.81750 | 36978 ft | 458 kts | 14° |
| 2026-05-03 22:04 | 47.90656 | -6.79384 | 36974 ft | 458 kts | 14° |
| 2026-05-03 22:04 | 47.96833 | -6.77007 | 36979 ft | 459 kts | 14° |
| 2026-05-03 22:05 | 48.03022 | -6.74636 | 36980 ft | 459 kts | 14° |
| 2026-05-03 22:05 | 48.09213 | -6.72248 | 36983 ft | 460 kts | 14° |
| 2026-05-03 22:06 | 48.15404 | -6.69847 | 36986 ft | 460 kts | 14° |
| 2026-05-03 22:06 | 48.21595 | -6.67445 | 36987 ft | 459 kts | 14° |
| 2026-05-03 22:07 | 48.27783 | -6.65051 | 36988 ft | 459 kts | 14° |
| 2026-05-03 22:07 | 48.33969 | -6.62654 | 36986 ft | 459 kts | 14° |
| 2026-05-03 22:08 | 48.40143 | -6.60235 | 36986 ft | 459 kts | 14° |
| 2026-05-03 22:08 | 48.46319 | -6.57816 | 36983 ft | 458 kts | 14° |
| 2026-05-03 22:09 | 48.52492 | -6.55406 | 36981 ft | 458 kts | 14° |
| 2026-05-03 22:10 | 48.61742 | -6.51760 | 36983 ft | 458 kts | 14° |
| 2026-05-03 22:10 | 48.67911 | -6.49324 | 36971 ft | 458 kts | 14° |
| 2026-05-03 22:11 | 48.74076 | -6.46877 | 36974 ft | 458 kts | 14° |
| 2026-05-03 22:11 | 48.80249 | -6.44428 | 36969 ft | 459 kts | 14° |
| 2026-05-03 22:12 | 48.86422 | -6.41964 | 36979 ft | 459 kts | 14° |
| 2026-05-03 22:12 | 48.92558 | -6.39518 | 36970 ft | 459 kts | 14° |
| 2026-05-03 22:13 | 48.98775 | -6.37050 | 36974 ft | 459 kts | 14° |
| 2026-05-03 22:13 | 49.04749 | -6.33792 | 36968 ft | 458 kts | 33° |
| 2026-05-03 22:13 | 49.07200 | -6.30734 | 36969 ft | 456 kts | 45° |
| 2026-05-03 22:14 | 49.09405 | -6.27333 | 36956 ft | 456 kts | 46° |
| 2026-05-03 22:14 | 49.13855 | -6.20414 | 36959 ft | 457 kts | 46° |
| 2026-05-03 22:15 | 49.18310 | -6.13466 | 36955 ft | 458 kts | 46° |
| 2026-05-03 22:15 | 49.22775 | -6.06513 | 36953 ft | 458 kts | 46° |
| 2026-05-03 22:16 | 49.27244 | -5.99547 | 36952 ft | 458 kts | 46° |
| 2026-05-03 22:16 | 49.31699 | -5.92561 | 36954 ft | 459 kts | 46° |
| 2026-05-03 22:17 | 49.36160 | -5.85550 | 36963 ft | 459 kts | 46° |
| 2026-05-03 22:17 | 49.40615 | -5.78543 | 36956 ft | 459 kts | 46° |
| 2026-05-03 22:18 | 49.45066 | -5.71514 | 36961 ft | 459 kts | 46° |
| 2026-05-03 22:18 | 49.49513 | -5.64478 | 36967 ft | 459 kts | 46° |
| 2026-05-03 22:19 | 49.53955 | -5.57421 | 36965 ft | 459 kts | 46° |
| 2026-05-03 22:19 | 49.58391 | -5.50351 | 36964 ft | 459 kts | 46° |
| 2026-05-03 22:20 | 49.62104 | -5.44418 | 36971 ft | 459 kts | 46° |
| 2026-05-03 22:20 | 49.66508 | -5.37370 | 36953 ft | 459 kts | 46° |
| 2026-05-03 22:21 | 49.70969 | -5.30218 | 36951 ft | 459 kts | 46° |
| 2026-05-03 22:21 | 49.75364 | -5.23145 | 36957 ft | 459 kts | 46° |
| 2026-05-03 22:22 | 49.79814 | -5.15956 | 36954 ft | 459 kts | 46° |
| 2026-05-03 22:22 | 49.84232 | -5.08806 | 36958 ft | 460 kts | 46° |
| 2026-05-03 22:23 | 49.88643 | -5.01635 | 36960 ft | 460 kts | 47° |
| 2026-05-03 22:23 | 49.93054 | -4.94459 | 36952 ft | 459 kts | 47° |
| 2026-05-03 22:24 | 49.97462 | -4.87268 | 36946 ft | 459 kts | 47° |
| 2026-05-03 22:24 | 50.01832 | -4.80111 | 36948 ft | 459 kts | 47° |
| 2026-05-03 22:25 | 50.06224 | -4.72890 | 36949 ft | 459 kts | 47° |
| 2026-05-03 22:25 | 50.10610 | -4.65661 | 36952 ft | 459 kts | 47° |
| 2026-05-03 22:26 | 50.14995 | -4.58420 | 36960 ft | 459 kts | 47° |
| 2026-05-03 22:26 | 50.19379 | -4.51172 | 36945 ft | 459 kts | 47° |
| 2026-05-03 22:27 | 50.23758 | -4.43907 | 36944 ft | 460 kts | 47° |
| 2026-05-03 22:27 | 50.28135 | -4.36626 | 36948 ft | 460 kts | 47° |
| 2026-05-03 22:28 | 50.32502 | -4.29332 | 36952 ft | 460 kts | 47° |
| 2026-05-03 22:28 | 50.36868 | -4.22002 | 36957 ft | 460 kts | 47° |
| 2026-05-03 22:29 | 50.41223 | -4.14672 | 36952 ft | 459 kts | 47° |
| 2026-05-03 22:29 | 50.45580 | -4.07332 | 36948 ft | 460 kts | 47° |
| 2026-05-03 22:30 | 50.49990 | -4.00060 | 36951 ft | 460 kts | 41° |
| 2026-05-03 22:30 | 50.55339 | -3.94631 | 36948 ft | 459 kts | 22° |
| 2026-05-03 22:31 | 50.61293 | -3.90997 | 36958 ft | 459 kts | 21° |
| 2026-05-03 22:31 | 50.67250 | -3.87344 | 36960 ft | 459 kts | 21° |
| 2026-05-03 22:32 | 50.73202 | -3.83661 | 36956 ft | 459 kts | 21° |
| 2026-05-03 22:32 | 50.79151 | -3.79979 | 36955 ft | 459 kts | 21° |
| 2026-05-03 22:33 | 50.85100 | -3.76289 | 36953 ft | 459 kts | 21° |
| 2026-05-03 22:33 | 50.91045 | -3.72593 | 36947 ft | 459 kts | 21° |
| 2026-05-03 22:34 | 50.96995 | -3.68894 | 36944 ft | 460 kts | 21° |
| 2026-05-03 22:34 | 51.02956 | -3.65191 | 36938 ft | 460 kts | 21° |
| 2026-05-03 22:35 | 51.08914 | -3.61469 | 36949 ft | 460 kts | 21° |
| 2026-05-03 22:35 | 51.14877 | -3.57725 | 36947 ft | 461 kts | 21° |
| 2026-05-03 22:36 | 51.20838 | -3.53960 | 36953 ft | 461 kts | 21° |
| 2026-05-03 22:36 | 51.27003 | -3.51384 | 36948 ft | 458 kts | 6° |
| 2026-05-03 22:37 | 51.33329 | -3.50166 | 36955 ft | 457 kts | 6° |
| 2026-05-03 22:37 | 51.39640 | -3.48919 | 36959 ft | 457 kts | 6° |
| 2026-05-03 22:38 | 51.45951 | -3.47670 | 36965 ft | 457 kts | 6° |
| 2026-05-03 22:38 | 51.52257 | -3.46421 | 36964 ft | 457 kts | 6° |
| 2026-05-03 22:38 | 51.55419 | -3.45793 | 36395 ft | 461 kts | 6° |
| 2026-05-03 22:39 | 51.58599 | -3.45160 | 35793 ft | 459 kts | 6° |
| 2026-05-03 22:39 | 51.61753 | -3.44534 | 35263 ft | 455 kts | 6° |
| 2026-05-03 22:39 | 51.64889 | -3.43913 | 34726 ft | 453 kts | 6° |
| 2026-05-03 22:39 | 51.68006 | -3.43290 | 34185 ft | 451 kts | 7° |
| 2026-05-03 22:40 | 51.71113 | -3.42664 | 33602 ft | 449 kts | 7° |
| 2026-05-03 22:40 | 51.74201 | -3.42042 | 33062 ft | 445 kts | 7° |
| 2026-05-03 22:40 | 51.77249 | -3.41429 | 32525 ft | 441 kts | 7° |
| 2026-05-03 22:40 | 51.80286 | -3.40818 | 32009 ft | 437 kts | 7° |
| 2026-05-03 22:41 | 51.83294 | -3.40209 | 31481 ft | 434 kts | 7° |
| 2026-05-03 22:41 | 51.86278 | -3.39604 | 30983 ft | 431 kts | 7° |
| 2026-05-03 22:41 | 51.89244 | -3.39007 | 30486 ft | 428 kts | 7° |
| 2026-05-03 22:41 | 51.92189 | -3.38417 | 29986 ft | 425 kts | 6° |
| 2026-05-03 22:42 | 51.95120 | -3.37944 | 29478 ft | 421 kts | 4° |
| 2026-05-03 22:42 | 51.98027 | -3.37662 | 29020 ft | 416 kts | 2° |
| 2026-05-03 22:42 | 52.00901 | -3.37496 | 28581 ft | 411 kts | 1° |
| 2026-05-03 22:42 | 52.03740 | -3.37370 | 28136 ft | 406 kts | 1° |
| 2026-05-03 22:43 | 52.06544 | -3.37242 | 27692 ft | 401 kts | 1° |
| 2026-05-03 22:43 | 52.09314 | -3.37094 | 27268 ft | 397 kts | 2° |
| 2026-05-03 22:43 | 52.12068 | -3.36922 | 26834 ft | 394 kts | 2° |
| 2026-05-03 22:43 | 52.14795 | -3.36731 | 26391 ft | 391 kts | 2° |
| 2026-05-03 22:44 | 52.17500 | -3.36531 | 25958 ft | 388 kts | 2° |
| 2026-05-03 22:44 | 52.20187 | -3.36326 | 25495 ft | 386 kts | 2° |
| 2026-05-03 22:44 | 52.22858 | -3.36122 | 25046 ft | 383 kts | 2° |
| 2026-05-03 22:44 | 52.25514 | -3.35922 | 24579 ft | 381 kts | 3° |
| 2026-05-03 22:45 | 52.28160 | -3.35722 | 24110 ft | 380 kts | 3° |
| 2026-05-03 22:45 | 52.30797 | -3.35524 | 23641 ft | 379 kts | 2° |
| 2026-05-03 22:45 | 52.33426 | -3.35331 | 23119 ft | 377 kts | 3° |
| 2026-05-03 22:45 | 52.36036 | -3.35141 | 22655 ft | 374 kts | 2° |
| 2026-05-03 22:46 | 52.38623 | -3.34957 | 22197 ft | 371 kts | 2° |
| 2026-05-03 22:46 | 52.41192 | -3.34775 | 21745 ft | 368 kts | 2° |
| 2026-05-03 22:46 | 52.43741 | -3.34591 | 21305 ft | 366 kts | 2° |
| 2026-05-03 22:46 | 52.46274 | -3.34404 | 20863 ft | 363 kts | 3° |
| 2026-05-03 22:47 | 52.48758 | -3.34219 | 20432 ft | 361 kts | 2° |
| 2026-05-03 22:47 | 52.51258 | -3.34032 | 20002 ft | 358 kts | 2° |
| 2026-05-03 22:47 | 52.53738 | -3.33847 | 19572 ft | 356 kts | 3° |
| 2026-05-03 22:47 | 52.56211 | -3.33666 | 19144 ft | 355 kts | 2° |
| 2026-05-03 22:48 | 52.58702 | -3.33486 | 18713 ft | 353 kts | 2° |
| 2026-05-03 22:48 | 52.61155 | -3.33306 | 18292 ft | 352 kts | 3° |
| 2026-05-03 22:48 | 52.63540 | -3.32746 | 17832 ft | 350 kts | 15° |
| 2026-05-03 22:48 | 52.65880 | -3.31456 | 17286 ft | 350 kts | 20° |
| 2026-05-03 22:49 | 52.68142 | -3.30103 | 16813 ft | 350 kts | 20° |
| 2026-05-03 22:49 | 52.70449 | -3.28722 | 16357 ft | 348 kts | 20° |
| 2026-05-03 22:49 | 52.72723 | -3.27358 | 15998 ft | 345 kts | 20° |
| 2026-05-03 22:49 | 52.74960 | -3.26015 | 15645 ft | 341 kts | 20° |
| 2026-05-03 22:50 | 52.77176 | -3.24686 | 15099 ft | 339 kts | 20° |
| 2026-05-03 22:50 | 52.79381 | -3.23367 | 14670 ft | 334 kts | 20° |
| 2026-05-03 22:50 | 52.81566 | -3.22061 | 14121 ft | 334 kts | 20° |
| 2026-05-03 22:50 | 52.83739 | -3.20757 | 13709 ft | 329 kts | 20° |
| 2026-05-03 22:51 | 52.85875 | -3.19471 | 12922 ft | 325 kts | 20° |
| 2026-05-03 22:51 | 52.87993 | -3.18199 | 12354 ft | 323 kts | 19° |
| 2026-05-03 22:51 | 52.90182 | -3.17485 | 11989 ft | 318 kts | 2° |
| 2026-05-03 22:51 | 52.92349 | -3.17408 | 11809 ft | 304 kts | 0° |
| 2026-05-03 22:52 | 52.94430 | -3.17375 | 11286 ft | 296 kts | 360° |
| 2026-05-03 22:52 | 52.96477 | -3.17341 | 10685 ft | 293 kts | 360° |
| 2026-05-03 22:52 | 52.98515 | -3.17300 | 10365 ft | 291 kts | 0° |
| 2026-05-03 22:52 | 53.00512 | -3.17247 | 9978 ft | 284 kts | 359° |
| 2026-05-03 22:53 | 53.02483 | -3.17184 | 9324 ft | 282 kts | 0° |
| 2026-05-03 22:53 | 53.04445 | -3.17131 | 8923 ft | 281 kts | 0° |
| 2026-05-03 22:53 | 53.06391 | -3.17091 | 8560 ft | 278 kts | 360° |
| 2026-05-03 22:53 | 53.08320 | -3.17051 | 8196 ft | 276 kts | 0° |
| 2026-05-03 22:54 | 53.10231 | -3.17016 | 7819 ft | 274 kts | 360° |
| 2026-05-03 22:54 | 53.12126 | -3.16990 | 7475 ft | 271 kts | 0° |
| 2026-05-03 22:54 | 53.13967 | -3.16971 | 7349 ft | 259 kts | 360° |
| 2026-05-03 22:54 | 53.15728 | -3.16951 | 7220 ft | 247 kts | 0° |
| 2026-05-03 22:55 | 53.17409 | -3.16934 | 7084 ft | 237 kts | 0° |
| 2026-05-03 22:55 | 53.19038 | -3.16921 | 6873 ft | 231 kts | 0° |
| 2026-05-03 22:55 | 53.20611 | -3.16912 | 6746 ft | 222 kts | 0° |
| 2026-05-03 22:55 | 53.22116 | -3.16913 | 6607 ft | 209 kts | 0° |
| 2026-05-03 22:56 | 53.23544 | -3.16927 | 6330 ft | 202 kts | 360° |
| 2026-05-03 22:56 | 53.24949 | -3.16943 | 5891 ft | 201 kts | 0° |
| 2026-05-03 22:56 | 53.26341 | -3.16967 | 5498 ft | 199 kts | 0° |
| 2026-05-03 22:56 | 53.27719 | -3.16998 | 5102 ft | 197 kts | 0° |
| 2026-05-03 22:57 | 53.29113 | -3.16944 | 4480 ft | 205 kts | 4° |
| 2026-05-03 22:57 | 53.30524 | -3.16502 | 3835 ft | 210 kts | 27° |
| 2026-05-03 22:57 | 53.31598 | -3.14930 | 3449 ft | 204 kts | 58° |
| 2026-05-03 22:57 | 53.32047 | -3.12781 | 3232 ft | 192 kts | 82° |
| 2026-05-03 22:58 | 53.32155 | -3.10609 | 2954 ft | 184 kts | 84° |
| 2026-05-03 22:58 | 53.32251 | -3.08540 | 2704 ft | 173 kts | 84° |
| 2026-05-03 22:58 | 53.32344 | -3.06597 | 2482 ft | 163 kts | 85° |
| 2026-05-03 22:58 | 53.32432 | -3.04740 | 2272 ft | 157 kts | 85° |
| 2026-05-03 22:59 | 53.32517 | -3.02976 | 2053 ft | 147 kts | 85° |
| 2026-05-03 22:59 | 53.32595 | -3.01340 | 1891 ft | 136 kts | 84° |
| 2026-05-03 22:59 | 53.32668 | -2.99795 | 1702 ft | 132 kts | 84° |
| 2026-05-03 22:59 | 53.32740 | -2.98280 | 1516 ft | 130 kts | 84° |
| 2026-05-03 23:00 | 53.32812 | -2.96773 | 1330 ft | 129 kts | 83° |
| 2026-05-03 23:00 | 53.32883 | -2.95271 | 1150 ft | 130 kts | 83° |
| 2026-05-03 23:00 | 53.32953 | -2.93777 | 968 ft | 128 kts | 84° |
| 2026-05-03 23:00 | 53.33024 | -2.92266 | 787 ft | 132 kts | 83° |
| 2026-05-03 23:01 | 53.33096 | -2.90732 | 620 ft | 132 kts | 84° |
| 2026-05-03 23:01 | 53.33167 | -2.89206 | 421 ft | 133 kts | 83° |
| 2026-05-03 23:01 | 53.33232 | -2.87671 | 261 ft | 131 kts | 82° |
| 2026-05-03 23:01 | 53.33308 | -2.86156 | 98 ft | 130 kts | 82° |
| 2026-05-03 23:02 | 53.33375 | -2.84839 | 78 ft | 83 kts | 87° |
| 2026-05-03 23:02 | 53.33391 | -2.84405 | 78 ft | 42 kts | 85° |
| 2026-05-03 23:02 | 53.33412 | -2.83937 | 85 ft | 36 kts | 85° |
| 2026-05-03 23:02 | 53.33436 | -2.83645 | 75 ft | 11 kts | 47° |
| 2026-05-03 23:03 | 53.33486 | -2.83626 | 70 ft | 11 kts | 353° |
| 2026-05-03 23:03 | 53.33540 | -2.83634 | 83 ft | 6 kts | 356° |
| 2026-05-03 23:03 | 53.33583 | -2.83681 | 86 ft | 8 kts | 286° |
| 2026-05-03 23:03 | 53.33583 | -2.83781 | 71 ft | 10 kts | 266° |
| 2026-05-03 23:04 | 53.33580 | -2.83863 | 77 ft | 11 kts | 266° |
| 2026-05-03 23:04 | 53.33575 | -2.83985 | 74 ft | 10 kts | 266° |
| 2026-05-03 23:04 | 53.33570 | -2.84088 | 78 ft | 10 kts | 265° |
| 2026-05-03 23:04 | 53.33562 | -2.84258 | 78 ft | 16 kts | 266° |
| 2026-05-03 23:05 | 53.33554 | -2.84440 | 78 ft | 15 kts | 265° |
| 2026-05-03 23:05 | 53.33547 | -2.84591 | 80 ft | 11 kts | 265° |
| 2026-05-03 23:05 | 53.33541 | -2.84710 | 81 ft | 9 kts | 265° |
| 2026-05-03 23:05 | 53.33537 | -2.84800 | 85 ft | 10 kts | 266° |
| 2026-05-03 23:06 | 53.33530 | -2.84961 | 85 ft | 14 kts | 265° |
| 2026-05-03 23:06 | 53.33523 | -2.85117 | 86 ft | 13 kts | 266° |
| 2026-05-03 23:06 | 53.33517 | -2.85257 | 86 ft | 11 kts | 265° |
| 2026-05-03 23:06 | 53.33511 | -2.85373 | 84 ft | 8 kts | 265° |
| 2026-05-03 23:07 | 53.33511 | -2.85464 | 85 ft | 7 kts | 284° |
| 2026-05-03 23:07 | 53.33538 | -2.85500 | 88 ft | 4 kts | 347° |
| 2026-05-03 23:07 | 53.33579 | -2.85508 | 85 ft | 5 kts | 355° |
| 2026-05-03 23:07 | 53.33602 | -2.85545 | 87 ft | 6 kts | 300° |
| 2026-05-03 23:08 | 53.33636 | -2.85581 | 87 ft | 4 kts | 354° |
| 2026-05-03 23:08 | 53.33655 | -2.85585 | 86 ft | 1 kts | 353° |
| 2026-05-03 23:08 | 53.33661 | -2.85586 | 89 ft | 1 kts | 354° |